createdAt,value
2019-04-22T00:01:57.860Z,12.43
2019-04-22T00:04:40.234Z,11.20
2019-04-22T00:07:29.180Z,11.90
2019-04-22T00:10:06.378Z,12.53
2019-04-22T00:12:42.096Z,12.03
2019-04-22T00:15:10.000Z,11.83
2019-04-22T00:18:25.187Z,12.37
2019-04-22T00:20:58.279Z,12.67
2019-04-22T00:23:33.345Z,12.00
2019-04-22T00:26:13.768Z,12.77
2019-04-22T00:28:43.998Z,12.40
2019-04-22T00:31:16.960Z,13.17
2019-04-22T00:33:52.928Z,12.23
2019-04-22T00:36:29.330Z,13.77
2019-04-22T00:39:07.114Z,13.10
2019-04-22T00:41:37.176Z,13.00
2019-04-22T00:44:13.817Z,13.23
2019-04-22T00:46:52.526Z,13.67
2019-04-22T00:52:03.292Z,13.40
2019-04-22T00:54:43.854Z,13.10
2019-04-22T00:57:12.314Z,13.32
2019-04-22T00:59:45.798Z,13.40
2019-04-22T01:02:24.550Z,13.43
2019-04-22T01:04:55.034Z,13.60
2019-04-22T01:07:24.873Z,13.20
2019-04-22T01:10:06.625Z,13.27
2019-04-22T01:12:39.592Z,12.20
2019-04-22T01:15:17.585Z,13.97
2019-04-22T01:17:45.439Z,13.00
2019-04-22T01:23:13.026Z,12.50
2019-04-22T01:25:46.235Z,12.10
2019-04-22T01:28:20.201Z,11.93
2019-04-22T01:30:51.712Z,11.90
2019-04-22T01:33:23.873Z,12.13
2019-04-22T01:36:15.072Z,12.23
2019-04-22T01:38:56.768Z,12.20
2019-04-22T01:41:35.327Z,13.08
2019-04-22T01:44:21.587Z,12.07
2019-04-22T01:46:36.910Z,11.50
2019-04-22T01:49:22.490Z,11.47
2019-04-22T01:52:05.086Z,11.53
2019-04-22T01:54:46.679Z,12.23
2019-04-22T01:57:22.661Z,11.33
2019-04-22T01:59:51.990Z,11.00
2019-04-22T02:02:40.001Z,11.73
2019-04-22T02:05:12.333Z,10.57
2019-04-22T02:07:42.488Z,10.93
2019-04-22T02:10:26.858Z,11.37
2019-04-22T02:12:55.430Z,11.43
2019-04-22T02:15:47.343Z,11.40
2019-04-22T02:18:10.726Z,11.83
2019-04-22T02:20:43.207Z,11.70
2019-04-22T02:26:34.247Z,10.70
2019-04-22T02:29:01.098Z,10.95
2019-04-22T02:36:34.018Z,10.40
2019-04-22T02:39:11.807Z,10.73
2019-04-22T02:42:09.510Z,10.60
2019-04-22T02:44:26.320Z,10.97
2019-04-22T02:47:14.096Z,10.23
2019-04-22T02:49:34.599Z,10.33
2019-04-22T03:00:09.704Z,10.77
2019-04-22T03:02:41.376Z,10.43
2019-04-22T03:05:08.852Z,11.17
2019-04-22T03:07:50.653Z,10.30
2019-04-22T03:10:23.908Z,11.07
2019-04-22T03:12:51.622Z,11.13
2019-04-22T03:15:20.008Z,11.18
2019-04-22T03:18:20.049Z,11.03
2019-04-22T03:20:42.856Z,11.03
2019-04-22T03:23:35.880Z,11.27
2019-04-22T03:28:51.111Z,11.30
2019-04-22T03:34:55.407Z,11.97
2019-04-22T03:42:07.137Z,11.73
2019-04-22T03:47:16.097Z,12.73
2019-04-22T03:50:14.428Z,12.80
2019-04-22T03:52:24.792Z,12.03
2019-04-22T03:55:16.064Z,12.10
2019-04-22T04:00:26.506Z,11.17
2019-04-22T04:03:07.784Z,11.13
2019-04-22T04:08:33.534Z,11.88
2019-04-22T04:16:04.672Z,11.23
2019-04-22T04:18:46.775Z,11.22
2019-04-22T04:21:30.033Z,11.60
2019-04-22T04:24:01.355Z,11.67
2019-04-22T04:26:45.559Z,10.80
2019-04-22T04:29:32.903Z,11.33
2019-04-22T04:32:09.847Z,11.43
2019-04-22T04:35:03.220Z,11.75
2019-04-22T04:37:38.751Z,11.60
2019-04-22T04:39:55.147Z,11.50
2019-04-22T04:42:35.216Z,11.88
2019-04-22T04:47:43.790Z,10.98
2019-04-22T04:50:09.798Z,11.85
2019-04-22T04:55:22.077Z,11.83
2019-04-22T04:58:10.133Z,12.35
2019-04-22T05:06:01.517Z,12.60
2019-04-22T05:08:52.114Z,12.78
2019-04-22T05:11:37.262Z,12.15
2019-04-22T05:14:06.024Z,12.15
2019-04-22T05:19:15.470Z,11.60
2019-04-22T05:21:53.436Z,12.83
2019-04-22T05:24:30.807Z,13.03
2019-04-22T05:27:05.362Z,12.37
2019-04-22T05:29:54.079Z,13.30
2019-04-22T05:32:09.230Z,12.00
2019-04-22T05:34:48.190Z,12.40
2019-04-22T05:37:20.758Z,12.20
2019-04-22T05:40:04.441Z,12.82
2019-04-22T05:42:23.666Z,12.43
2019-04-22T05:45:10.666Z,12.03
2019-04-22T05:47:44.387Z,11.50
2019-04-22T05:50:12.999Z,12.83
2019-04-22T05:52:55.366Z,11.63
2019-04-22T05:58:02.844Z,12.00
2019-04-22T06:01:05.731Z,12.53
2019-04-22T06:03:16.511Z,11.10
2019-04-22T06:05:47.922Z,10.03
2019-04-22T06:08:24.166Z,9.85
2019-04-22T06:11:04.116Z,9.05
2019-04-22T06:13:33.052Z,9.83
2019-04-22T06:16:14.640Z,9.37
2019-04-22T06:18:48.979Z,9.70
2019-04-22T06:21:28.080Z,9.10
2019-04-22T06:24:04.796Z,9.43
2019-04-22T06:26:45.829Z,9.47
2019-04-22T06:29:32.029Z,9.93
2019-04-22T06:34:27.624Z,9.97
2019-04-22T06:37:04.696Z,10.30
2019-04-22T06:42:07.934Z,10.35
2019-04-22T06:44:36.876Z,9.90
2019-04-22T06:47:25.132Z,9.63
2019-04-22T06:49:52.558Z,10.07
2019-04-22T06:55:03.934Z,10.45
2019-04-22T06:57:36.967Z,10.57
2019-04-22T07:00:11.850Z,9.43
2019-04-22T07:02:57.807Z,9.97
2019-04-22T07:05:23.560Z,10.70
2019-04-22T07:08:04.095Z,11.50
2019-04-22T07:10:35.002Z,11.10
2019-04-22T07:13:00.942Z,11.50
2019-04-22T07:15:50.593Z,11.53
2019-04-22T07:18:24.888Z,12.03
2019-04-22T07:23:27.117Z,11.83
2019-04-22T07:26:13.973Z,11.93
2019-04-22T07:28:29.131Z,11.40
2019-04-22T07:31:11.348Z,11.53
2019-04-22T07:33:51.798Z,11.73
2019-04-22T07:38:56.469Z,11.20
2019-04-22T07:41:31.847Z,11.08
2019-04-22T07:44:24.175Z,11.73
2019-04-22T07:46:54.326Z,12.67
2019-04-22T07:49:18.340Z,12.20
2019-04-22T07:51:50.271Z,12.37
2019-04-22T07:54:26.322Z,12.57
2019-04-22T07:57:08.958Z,13.27
2019-04-22T07:59:35.276Z,14.17
2019-04-22T08:02:16.177Z,14.47
2019-04-22T08:05:03.986Z,14.83
2019-04-22T08:07:24.176Z,14.43
2019-04-22T08:10:08.782Z,15.60
2019-04-22T08:12:39.078Z,14.47
2019-04-22T08:15:13.093Z,14.37
2019-04-22T08:17:55.093Z,15.77
2019-04-22T08:20:23.843Z,14.37
2019-04-22T08:23:00.400Z,14.50
2019-04-22T08:25:31.437Z,14.87
2019-04-22T08:28:10.239Z,14.68
2019-04-22T08:30:50.819Z,14.47
2019-04-22T08:33:21.749Z,14.67
2019-04-22T08:36:06.472Z,14.43
2019-04-22T08:38:48.747Z,13.97
2019-04-22T08:41:23.505Z,14.50
2019-04-22T08:43:57.477Z,14.15
2019-04-22T08:49:00.806Z,15.40
2019-04-22T08:51:36.019Z,14.40
2019-04-22T08:54:13.240Z,15.83
2019-04-22T08:56:56.845Z,13.73
2019-04-22T08:59:21.784Z,14.00
2019-04-22T09:02:10.147Z,14.70
2019-04-22T09:04:36.511Z,15.23
2019-04-22T09:07:21.150Z,14.83
2019-04-22T09:09:50.621Z,15.33
2019-04-22T09:12:23.859Z,14.43
2019-04-22T09:14:52.103Z,14.75
2019-04-22T09:17:51.416Z,14.90
2019-04-22T09:20:11.327Z,14.23
2019-04-22T09:22:41.127Z,14.60
2019-04-22T09:25:17.033Z,14.80
2019-04-22T09:27:51.243Z,15.00
2019-04-22T09:30:34.665Z,14.47
2019-04-22T09:33:11.065Z,15.70
2019-04-22T09:35:45.008Z,15.77
2019-04-22T09:38:34.681Z,15.70
2019-04-22T09:41:14.010Z,16.80
2019-04-22T09:43:40.660Z,15.25
2019-04-22T09:46:14.817Z,15.20
2019-04-22T09:48:59.051Z,15.35
2019-04-22T09:51:32.532Z,14.80
2019-04-22T09:54:20.165Z,15.20
2019-04-22T09:59:13.936Z,15.97
2019-04-22T10:02:08.448Z,15.80
2019-04-22T10:04:25.393Z,14.43
2019-04-22T10:07:01.004Z,15.80
2019-04-22T10:09:52.866Z,15.00
2019-04-22T10:12:19.309Z,14.83
2019-04-22T10:15:00.289Z,17.07
2019-04-22T10:17:58.271Z,16.77
2019-04-22T10:20:36.356Z,17.73
2019-04-22T10:23:12.838Z,17.07
2019-04-22T10:25:46.062Z,18.63
2019-04-22T10:30:59.834Z,18.93
2019-04-22T10:33:38.377Z,18.10
2019-04-22T10:35:55.326Z,17.73
2019-04-22T10:38:34.490Z,17.40
2019-04-22T10:41:10.212Z,16.60
2019-04-22T10:43:45.272Z,17.05
2019-04-22T10:46:22.198Z,16.50
2019-04-22T10:48:58.047Z,17.77
2019-04-22T10:51:32.741Z,16.17
2019-04-22T10:54:09.619Z,16.17
2019-04-22T10:56:45.231Z,17.10
2019-04-22T10:59:20.485Z,17.63
2019-04-22T11:01:55.595Z,16.20
2019-04-22T11:04:32.272Z,17.33
2019-04-22T11:07:10.497Z,17.62
2019-04-22T11:09:51.796Z,15.87
2019-04-22T11:12:21.479Z,15.47
2019-04-22T11:14:53.752Z,15.60
2019-04-22T11:17:31.546Z,15.67
2019-04-22T11:20:06.222Z,15.33
2019-04-22T11:22:42.692Z,16.30
2019-04-22T11:25:18.042Z,17.10
2019-04-22T11:27:55.794Z,15.00
2019-04-22T11:30:32.253Z,17.93
2019-04-22T11:33:06.788Z,15.88
2019-04-22T11:35:41.702Z,16.70
2019-04-22T11:38:17.059Z,15.47
2019-04-22T11:40:54.391Z,14.83
2019-04-22T11:43:28.643Z,15.33
2019-04-22T11:46:03.238Z,15.72
2019-04-22T11:48:40.501Z,16.10
2019-04-22T11:51:15.949Z,16.23
2019-04-22T11:53:49.873Z,15.10
2019-04-22T11:56:27.132Z,15.90
2019-04-22T11:59:02.815Z,15.53
2019-04-22T12:01:39.517Z,15.60
2019-04-22T12:04:14.279Z,15.50
2019-04-22T12:06:51.621Z,16.43
2019-04-22T12:09:27.802Z,15.83
2019-04-22T12:12:14.040Z,15.23
2019-04-22T12:14:52.246Z,15.17
2019-04-22T12:17:31.879Z,15.65
2019-04-22T12:20:14.069Z,15.08
2019-04-22T12:22:49.142Z,15.73
2019-04-22T12:25:34.684Z,14.67
2019-04-22T12:28:08.965Z,15.03
2019-04-22T12:30:48.386Z,14.33
2019-04-22T12:33:25.267Z,14.77
2019-04-22T12:36:06.405Z,14.30
2019-04-22T12:38:45.182Z,14.18
2019-04-22T12:41:21.961Z,14.10
2019-04-22T12:43:58.992Z,14.43
2019-04-22T12:46:34.207Z,14.73
2019-04-22T12:49:12.144Z,15.63
2019-04-22T12:51:49.323Z,14.77
2019-04-22T12:54:24.783Z,15.37
2019-04-22T12:57:01.737Z,15.27
2019-04-22T12:59:39.780Z,14.27
2019-04-22T13:02:15.477Z,15.18
2019-04-22T13:04:52.308Z,14.63
2019-04-22T13:07:29.634Z,14.40
2019-04-22T13:10:05.963Z,14.13
2019-04-22T13:12:40.961Z,14.10
2019-04-22T13:15:37.027Z,15.13
2019-04-22T13:18:26.991Z,14.67
2019-04-22T13:20:51.054Z,15.13
2019-04-22T13:23:29.646Z,13.80
2019-04-22T13:26:12.948Z,14.53
2019-04-22T13:28:49.173Z,14.00
2019-04-22T13:31:28.864Z,13.93
2019-04-22T13:34:05.660Z,15.43
2019-04-22T13:36:43.548Z,14.73
2019-04-22T13:39:18.795Z,14.78
2019-04-22T13:41:59.945Z,15.13
2019-04-22T13:44:33.598Z,14.65
2019-04-22T13:47:21.481Z,14.33
2019-04-22T13:50:16.703Z,13.58
2019-04-22T13:52:53.598Z,13.60
2019-04-22T13:58:00.769Z,14.87
2019-04-22T14:00:27.071Z,14.53
2019-04-22T14:03:04.626Z,13.43
2019-04-22T14:05:42.528Z,15.17
2019-04-22T14:08:18.052Z,13.60
2019-04-22T14:10:52.504Z,13.20
2019-04-22T14:13:27.665Z,13.40
2019-04-22T14:16:04.576Z,12.63
2019-04-22T14:18:41.081Z,12.90
2019-04-22T14:21:18.804Z,13.47
2019-04-22T14:23:53.051Z,13.47
2019-04-22T14:26:47.936Z,13.33
2019-04-22T14:29:06.039Z,12.95
2019-04-22T14:32:04.283Z,12.33
2019-04-22T14:34:28.227Z,12.30
2019-04-22T14:37:12.128Z,13.03
2019-04-22T14:39:48.140Z,12.10
2019-04-22T14:42:44.043Z,13.40
2019-04-22T14:45:21.949Z,12.37
2019-04-22T14:48:01.493Z,12.50
2019-04-22T14:50:33.609Z,10.67
2019-04-22T14:53:05.463Z,10.98
2019-04-22T14:55:23.887Z,10.37
2019-04-22T14:57:56.903Z,10.80
2019-04-22T15:00:33.774Z,9.53
2019-04-22T15:03:08.235Z,11.17
2019-04-22T15:05:42.118Z,10.23
2019-04-22T15:08:17.138Z,10.70
2019-04-22T15:10:51.730Z,10.87
2019-04-22T15:13:31.587Z,9.40
2019-04-22T15:16:05.965Z,9.08
2019-04-22T15:18:39.829Z,9.20
2019-04-22T15:21:14.495Z,9.17
2019-04-22T15:23:50.770Z,9.10
2019-04-22T15:26:28.553Z,9.10
2019-04-22T15:29:03.108Z,8.93
2019-04-22T15:31:37.451Z,9.87
2019-04-22T15:34:12.307Z,9.27
2019-04-22T15:36:46.204Z,9.23
2019-04-22T15:39:20.791Z,9.10
2019-04-22T15:42:01.748Z,9.07
2019-04-22T15:44:30.404Z,8.80
2019-04-22T15:47:06.864Z,9.80
2019-04-22T15:49:42.163Z,10.03
2019-04-22T15:52:16.657Z,9.17
2019-04-22T15:54:53.555Z,9.10
2019-04-22T15:57:26.787Z,8.40
2019-04-22T16:00:17.623Z,9.23
2019-04-22T16:02:37.431Z,9.07
2019-04-22T16:05:12.768Z,8.43
2019-04-22T16:07:46.365Z,8.68
2019-04-22T16:10:20.120Z,8.50
2019-04-22T16:13:03.514Z,8.93
2019-04-22T16:15:30.639Z,7.83
2019-04-22T16:18:05.330Z,8.35
2019-04-22T16:20:40.409Z,8.70
2019-04-22T16:23:15.285Z,10.03
2019-04-22T16:25:49.477Z,9.37
2019-04-22T16:28:25.301Z,9.10
2019-04-22T16:30:59.680Z,9.05
2019-04-22T16:33:36.468Z,9.90
2019-04-22T16:36:09.180Z,9.33
2019-04-22T16:38:44.747Z,9.95
2019-04-22T16:41:18.834Z,9.13
2019-04-22T16:43:54.217Z,9.60
2019-04-22T16:46:28.024Z,8.93
2019-04-22T16:49:01.705Z,9.77
2019-04-22T16:51:36.175Z,9.35
2019-04-22T16:54:11.670Z,9.70
2019-04-22T16:56:45.755Z,10.10
2019-04-22T16:59:19.501Z,10.23
2019-04-22T17:01:54.452Z,9.70
2019-04-22T17:04:28.349Z,10.43
2019-04-22T17:07:03.597Z,11.67
2019-04-22T17:09:37.530Z,11.60
2019-04-22T17:12:12.013Z,12.20
2019-04-22T17:14:52.701Z,11.57
2019-04-22T17:17:22.098Z,11.13
2019-04-22T17:19:57.539Z,10.83
2019-04-22T17:22:33.561Z,12.00
2019-04-22T17:25:08.693Z,12.30
2019-04-22T17:27:43.471Z,10.90
2019-04-22T17:30:17.750Z,11.27
2019-04-22T17:32:52.479Z,11.10
2019-04-22T17:35:26.375Z,11.03
2019-04-22T17:38:08.873Z,12.33
2019-04-22T17:40:52.248Z,12.75
2019-04-22T17:43:44.091Z,13.43
2019-04-22T17:46:07.296Z,13.63
2019-04-22T17:48:40.624Z,12.73
2019-04-22T17:51:22.940Z,13.10
2019-04-22T17:53:55.978Z,13.00
2019-04-22T17:56:27.663Z,13.33
2019-04-22T17:59:02.754Z,13.13
2019-04-22T18:01:35.594Z,13.27
2019-04-22T18:03:55.532Z,15.35
2019-04-22T18:06:54.801Z,14.97
2019-04-22T18:09:27.702Z,14.50
2019-04-22T18:12:05.407Z,14.07
2019-04-22T18:14:44.971Z,16.23
2019-04-22T18:17:11.381Z,16.65
2019-04-22T18:19:39.648Z,16.70
2019-04-22T18:22:14.034Z,18.37
2019-04-22T18:24:50.131Z,17.40
2019-04-22T18:30:02.354Z,18.87
2019-04-22T18:32:42.518Z,18.60
2019-04-22T18:35:14.095Z,18.97
2019-04-22T18:37:54.786Z,22.60
2019-04-22T18:40:30.986Z,24.07
2019-04-22T18:43:04.375Z,24.83
2019-04-22T18:48:06.264Z,28.07
2019-04-22T18:51:00.171Z,28.50
2019-04-22T18:53:27.347Z,28.43
2019-04-22T18:55:56.948Z,29.32
2019-04-22T18:58:32.250Z,29.93
2019-04-22T19:00:52.507Z,29.93
2019-04-22T19:03:29.912Z,32.70
2019-04-22T19:06:30.633Z,36.37
2019-04-22T19:08:55.499Z,36.70
2019-04-22T19:11:35.456Z,39.30
2019-04-22T19:14:07.567Z,37.10
2019-04-22T19:16:39.847Z,39.20
2019-04-22T19:19:33.301Z,40.70
2019-04-22T19:21:53.633Z,44.67
2019-04-22T19:24:22.928Z,46.23
2019-04-22T19:27:02.013Z,46.17
2019-04-22T19:29:39.221Z,49.38
2019-04-22T19:32:08.372Z,51.90
2019-04-22T19:34:44.362Z,52.47
2019-04-22T19:37:17.386Z,55.20
2019-04-22T19:40:03.489Z,58.07
2019-04-22T19:42:36.672Z,59.97
2019-04-22T19:45:05.855Z,61.83
2019-04-22T19:47:41.863Z,62.33
2019-04-22T19:50:19.199Z,64.57
2019-04-22T19:52:50.299Z,67.87
2019-04-22T19:55:32.564Z,65.52
2019-04-22T19:57:59.834Z,63.53
2019-04-22T20:00:34.015Z,66.92
2019-04-22T20:03:16.081Z,63.80
2019-04-22T20:05:50.889Z,65.60
2019-04-22T20:08:21.317Z,65.95
2019-04-22T20:10:52.287Z,63.00
2019-04-22T20:13:37.250Z,65.50
2019-04-22T20:15:57.505Z,62.43
2019-04-22T20:18:50.146Z,63.60
2019-04-22T20:21:19.409Z,60.50
2019-04-22T20:23:41.838Z,59.13
2019-04-22T20:26:17.887Z,61.17
2019-04-22T20:28:58.942Z,60.63
2019-04-22T20:31:43.062Z,61.33
2019-04-22T20:34:17.343Z,61.50
2019-04-22T20:37:01.790Z,58.17
2019-04-22T20:39:27.079Z,59.43
2019-04-22T20:41:57.735Z,59.80
2019-04-22T20:44:35.302Z,58.30
2019-04-22T20:47:07.276Z,59.03
2019-04-22T20:49:44.482Z,56.80
2019-04-22T20:54:49.071Z,58.87
2019-04-22T20:57:23.972Z,57.40
2019-04-22T20:59:55.930Z,57.57
2019-04-22T21:02:27.718Z,58.67
2019-04-22T21:04:59.054Z,56.97
2019-04-22T21:07:38.526Z,56.23
2019-04-22T21:10:19.919Z,55.43
2019-04-22T21:12:50.942Z,54.27
2019-04-22T21:15:37.405Z,54.83
2019-04-22T21:18:08.382Z,52.80
2019-04-22T21:20:48.184Z,52.90
2019-04-22T21:23:17.821Z,53.27
2019-04-22T21:25:43.045Z,53.30
2019-04-22T21:28:28.891Z,51.67
2019-04-22T21:30:57.174Z,50.30
2019-04-22T21:33:37.886Z,50.50
2019-04-22T21:36:20.147Z,50.37
2019-04-22T21:38:43.477Z,47.43
2019-04-22T21:41:20.537Z,49.07
2019-04-22T21:43:58.221Z,46.60
2019-04-22T21:46:37.035Z,45.70
2019-04-22T21:49:16.612Z,45.95
2019-04-22T21:51:49.597Z,44.87
2019-04-22T21:54:21.636Z,43.63
2019-04-22T21:57:07.425Z,43.87
2019-04-22T21:59:30.144Z,43.77
2019-04-22T22:02:04.421Z,40.93
2019-04-22T22:04:36.585Z,40.97
2019-04-22T22:06:59.650Z,39.58
2019-04-22T22:09:50.718Z,41.40
2019-04-22T22:12:24.648Z,39.93
2019-04-22T22:15:00.870Z,38.90
2019-04-22T22:17:31.119Z,39.07
2019-04-22T22:20:07.478Z,39.70
2019-04-22T22:25:21.261Z,37.43
2019-04-22T22:27:49.461Z,37.17
2019-04-22T22:30:51.260Z,35.17
2019-04-22T22:33:05.717Z,36.53
2019-04-22T22:35:40.872Z,35.43
2019-04-22T22:38:19.166Z,35.07
2019-04-22T22:40:34.486Z,33.53
2019-04-22T22:43:18.953Z,33.37
2019-04-22T22:45:48.897Z,33.40
2019-04-22T22:48:41.451Z,33.50
2019-04-22T22:51:09.631Z,32.60
2019-04-22T22:53:57.050Z,31.50
2019-04-22T22:56:27.399Z,31.30
2019-04-22T22:59:01.773Z,31.10
2019-04-22T23:01:36.141Z,32.37
2019-04-22T23:04:12.864Z,31.40
2019-04-22T23:06:44.414Z,30.83
2019-04-22T23:09:19.209Z,31.53
2019-04-22T23:12:06.041Z,31.17
2019-04-22T23:14:34.505Z,30.30
2019-04-22T23:16:51.401Z,30.60
2019-04-22T23:19:19.909Z,30.15
2019-04-22T23:22:01.118Z,30.17
2019-04-22T23:24:43.747Z,30.12
2019-04-22T23:27:24.562Z,31.17
2019-04-22T23:29:49.980Z,29.53
2019-04-22T23:32:25.433Z,31.07
2019-04-22T23:35:10.118Z,30.60
2019-04-22T23:37:47.626Z,30.37
2019-04-22T23:40:32.609Z,31.10
2019-04-22T23:43:00.090Z,31.12
2019-04-22T23:45:33.254Z,31.23
2019-04-22T23:48:03.301Z,31.57
2019-04-22T23:50:45.412Z,30.83
2019-04-22T23:53:17.919Z,34.77
2019-04-22T23:55:53.168Z,32.80
2019-04-22T23:58:44.813Z,33.40
